createdAt,value
2023-02-07T00:00:17.463Z,63.50
2023-02-07T00:02:46.434Z,63.26
2023-02-07T00:05:13.677Z,63.31
2023-02-07T00:07:40.554Z,62.82
2023-02-07T00:10:08.474Z,62.60
2023-02-07T00:12:35.684Z,62.35
2023-02-07T00:15:02.393Z,62.29
2023-02-07T00:17:29.568Z,61.90
2023-02-07T00:19:57.030Z,62.09
2023-02-07T00:22:23.889Z,62.60
2023-02-07T00:24:50.700Z,61.92
2023-02-07T00:27:17.875Z,61.14
2023-02-07T00:29:45.325Z,61.51
2023-02-07T00:32:12.977Z,61.30
2023-02-07T00:34:40.010Z,61.35
2023-02-07T00:37:06.928Z,61.07
2023-02-07T00:39:33.821Z,61.03
2023-02-07T00:42:00.598Z,61.13
2023-02-07T00:44:27.387Z,60.79
2023-02-07T00:46:54.318Z,60.36
2023-02-07T00:49:22.131Z,60.59
2023-02-07T00:51:48.858Z,61.22
2023-02-07T00:54:15.689Z,60.64
2023-02-07T00:56:43.776Z,60.40
2023-02-07T00:59:10.531Z,60.08
2023-02-07T01:01:37.489Z,60.09
2023-02-07T01:04:04.440Z,60.11
2023-02-07T01:06:33.910Z,59.75
2023-02-07T01:09:02.491Z,59.94
2023-02-07T01:11:30.383Z,59.93
2023-02-07T01:13:59.955Z,60.08
2023-02-07T01:16:30.809Z,60.24
2023-02-07T01:19:02.227Z,59.79
2023-02-07T01:21:29.280Z,59.74
2023-02-07T01:23:56.941Z,59.69
2023-02-07T01:26:25.568Z,59.93
2023-02-07T01:28:55.084Z,60.15
2023-02-07T01:31:23.209Z,59.97
2023-02-07T01:33:55.532Z,60.23
2023-02-07T01:36:22.603Z,60.33
2023-02-07T01:38:52.446Z,60.72
2023-02-07T01:41:20.602Z,60.79
2023-02-07T01:44:03.092Z,60.15
2023-02-07T01:46:32.211Z,59.79
2023-02-07T01:49:04.878Z,59.54
2023-02-07T01:51:32.848Z,59.95
2023-02-07T01:54:03.392Z,59.97
2023-02-07T01:56:32.416Z,59.96
2023-02-07T01:59:04.460Z,59.56
2023-02-07T02:01:31.681Z,59.54
2023-02-07T02:03:58.692Z,59.49
2023-02-07T02:06:30.419Z,59.60
2023-02-07T02:09:01.355Z,60.01
2023-02-07T02:11:49.471Z,59.70
2023-02-07T02:14:26.922Z,59.72
2023-02-07T02:17:22.283Z,59.94
2023-02-07T02:19:50.100Z,59.67
2023-02-07T02:22:25.464Z,59.42
2023-02-07T02:24:59.200Z,59.65
2023-02-07T02:27:34.407Z,59.54
2023-02-07T02:30:29.904Z,59.81
2023-02-07T02:33:09.212Z,59.91
2023-02-07T02:35:42.716Z,59.97
2023-02-07T02:38:24.005Z,60.04
2023-02-07T02:41:02.015Z,59.73
2023-02-07T02:43:54.037Z,59.70
2023-02-07T02:46:25.161Z,60.20
2023-02-07T02:48:53.878Z,60.22
2023-02-07T02:51:21.288Z,59.81
2023-02-07T02:53:52.867Z,59.41
2023-02-07T02:56:39.488Z,59.73
2023-02-07T02:59:26.489Z,60.00
2023-02-07T03:02:02.736Z,60.12
2023-02-07T03:05:00.484Z,60.40
2023-02-07T03:07:46.294Z,60.15
2023-02-07T03:10:24.271Z,59.93
2023-02-07T03:13:01.870Z,59.57
2023-02-07T03:15:35.025Z,59.71
2023-02-07T03:18:14.343Z,59.60
2023-02-07T03:20:47.012Z,59.30
2023-02-07T03:23:16.549Z,59.33
2023-02-07T03:25:45.756Z,59.39
2023-02-07T03:28:16.693Z,59.47
2023-02-07T03:30:49.064Z,59.56
2023-02-07T03:33:17.978Z,59.53
2023-02-07T03:36:09.772Z,59.15
2023-02-07T03:38:37.802Z,59.74
2023-02-07T03:41:15.688Z,60.41
2023-02-07T03:43:44.230Z,60.37
2023-02-07T03:46:11.738Z,60.35
2023-02-07T03:48:38.550Z,60.53
2023-02-07T03:51:05.478Z,60.72
2023-02-07T03:53:32.184Z,60.81
2023-02-07T03:55:58.966Z,60.63
2023-02-07T03:58:25.880Z,60.19
2023-02-07T04:00:52.736Z,60.23
2023-02-07T04:03:19.582Z,59.99
2023-02-07T04:05:46.569Z,60.27
2023-02-07T04:08:13.383Z,60.36
2023-02-07T04:10:40.195Z,60.90
2023-02-07T04:13:06.989Z,60.69
2023-02-07T04:15:33.833Z,60.59
2023-02-07T04:18:00.758Z,60.43
2023-02-07T04:20:27.637Z,60.24
2023-02-07T04:22:54.402Z,59.91
2023-02-07T04:25:21.359Z,59.86
2023-02-07T04:27:51.013Z,59.61
2023-02-07T04:30:17.888Z,59.61
2023-02-07T04:32:44.693Z,59.92
2023-02-07T04:35:11.440Z,59.77
2023-02-07T04:37:38.227Z,59.93
2023-02-07T04:40:05.324Z,59.55
2023-02-07T04:42:32.180Z,59.65
2023-02-07T04:44:58.919Z,59.43
2023-02-07T04:47:25.702Z,59.50
2023-02-07T04:49:52.503Z,58.93
2023-02-07T04:52:19.241Z,59.66
2023-02-07T04:54:46.260Z,60.16
2023-02-07T04:57:12.991Z,60.68
2023-02-07T04:59:39.723Z,60.85
2023-02-07T05:02:06.626Z,61.03
2023-02-07T05:04:33.444Z,61.11
2023-02-07T05:07:00.233Z,61.42
2023-02-07T05:09:27.231Z,61.79
2023-02-07T05:11:54.014Z,61.88
2023-02-07T05:14:20.778Z,62.17
2023-02-07T05:16:47.622Z,62.24
2023-02-07T05:19:14.420Z,62.31
2023-02-07T05:21:41.170Z,62.74
2023-02-07T05:24:08.277Z,63.37
2023-02-07T05:26:35.044Z,63.44
2023-02-07T05:29:01.807Z,63.77
2023-02-07T05:31:44.164Z,63.79
2023-02-07T05:34:11.089Z,64.37
2023-02-07T05:36:37.836Z,64.49
2023-02-07T05:39:04.722Z,64.83
2023-02-07T05:41:31.557Z,65.34
2023-02-07T05:43:58.268Z,65.83
2023-02-07T05:46:25.094Z,65.75
2023-02-07T05:48:51.917Z,65.85
2023-02-07T05:51:19.004Z,65.89
2023-02-07T05:53:45.815Z,66.09
2023-02-07T05:56:12.583Z,66.15
2023-02-07T05:58:39.327Z,65.92
2023-02-07T06:01:06.140Z,66.01
2023-02-07T06:03:32.939Z,65.80
2023-02-07T06:05:59.659Z,66.36
2023-02-07T06:08:26.444Z,66.34
2023-02-07T06:10:53.156Z,66.07
2023-02-07T06:13:19.964Z,65.99
2023-02-07T06:15:47.768Z,66.26
2023-02-07T06:18:14.836Z,66.10
2023-02-07T06:20:41.538Z,66.26
2023-02-07T06:23:08.332Z,66.09
2023-02-07T06:25:35.016Z,66.16
2023-02-07T06:28:01.809Z,66.12
2023-02-07T06:30:28.710Z,65.93
2023-02-07T06:32:55.423Z,66.24
2023-02-07T06:35:22.132Z,66.11
2023-02-07T06:37:48.946Z,65.99
2023-02-07T06:40:16.089Z,66.03
2023-02-07T06:42:44.467Z,66.98
2023-02-07T06:45:11.269Z,67.23
2023-02-07T06:47:37.978Z,67.33
2023-02-07T06:50:05.214Z,67.53
2023-02-07T06:52:32.047Z,68.12
2023-02-07T06:54:58.736Z,68.92
2023-02-07T06:57:25.489Z,68.76
2023-02-07T06:59:52.295Z,69.35
2023-02-07T07:02:19.184Z,68.86
2023-02-07T07:04:46.076Z,68.71
2023-02-07T07:07:12.949Z,69.03
2023-02-07T07:09:39.794Z,69.75
2023-02-07T07:12:08.806Z,69.92
2023-02-07T07:14:36.122Z,70.10
2023-02-07T07:17:02.998Z,69.10
2023-02-07T07:19:29.725Z,68.87
2023-02-07T07:21:56.593Z,69.41
2023-02-07T07:24:25.378Z,69.67
2023-02-07T07:26:52.197Z,69.86
2023-02-07T07:29:19.862Z,69.68
2023-02-07T07:31:47.332Z,69.38
2023-02-07T07:34:14.708Z,69.57
2023-02-07T07:36:41.832Z,70.16
2023-02-07T07:39:09.132Z,70.20
2023-02-07T07:41:36.342Z,70.31
2023-02-07T07:44:03.831Z,70.77
2023-02-07T07:46:30.544Z,71.12
2023-02-07T07:48:57.352Z,71.73
2023-02-07T07:51:24.269Z,71.85
2023-02-07T07:53:51.055Z,72.05
2023-02-07T07:56:17.780Z,72.25
2023-02-07T07:58:44.635Z,72.40
2023-02-07T08:01:11.393Z,72.43
2023-02-07T08:03:38.270Z,71.86
2023-02-07T08:06:06.116Z,72.19
2023-02-07T08:08:33.720Z,72.12
2023-02-07T08:11:03.661Z,71.54
2023-02-07T08:13:32.993Z,70.68
2023-02-07T08:16:01.360Z,70.02
2023-02-07T08:18:29.261Z,69.23
2023-02-07T08:20:56.405Z,68.88
2023-02-07T08:23:23.130Z,68.65
2023-02-07T08:25:50.254Z,68.51
2023-02-07T08:28:18.169Z,68.56
2023-02-07T08:30:47.676Z,68.50
2023-02-07T08:33:15.960Z,68.26
2023-02-07T08:35:43.111Z,68.24
2023-02-07T08:38:09.985Z,68.48
2023-02-07T08:40:37.601Z,68.65
2023-02-07T08:43:07.519Z,68.85
2023-02-07T08:45:34.386Z,68.64
2023-02-07T08:48:01.259Z,68.83
2023-02-07T08:50:28.086Z,68.69
2023-02-07T08:52:55.001Z,68.74
2023-02-07T08:55:24.133Z,68.72
2023-02-07T08:57:50.954Z,68.48
2023-02-07T09:00:18.126Z,68.84
2023-02-07T09:02:45.052Z,68.97
2023-02-07T09:05:12.135Z,68.96
2023-02-07T09:07:39.002Z,69.00
2023-02-07T09:10:07.774Z,69.08
2023-02-07T09:12:35.584Z,69.40
2023-02-07T09:15:03.946Z,69.25
2023-02-07T09:17:30.777Z,69.09
2023-02-07T09:19:57.660Z,68.67
2023-02-07T09:22:24.366Z,68.03
2023-02-07T09:24:51.114Z,67.91
2023-02-07T09:27:17.894Z,67.17
2023-02-07T09:29:44.852Z,67.01
2023-02-07T09:32:11.548Z,67.29
2023-02-07T09:34:38.357Z,67.44
2023-02-07T09:37:05.226Z,67.93
2023-02-07T09:39:33.127Z,67.90
2023-02-07T09:42:21.602Z,67.95
2023-02-07T09:44:56.942Z,68.32
2023-02-07T09:47:26.041Z,68.63
2023-02-07T09:50:01.723Z,68.67
2023-02-07T09:52:35.798Z,68.80
2023-02-07T09:55:05.608Z,69.02
2023-02-07T09:57:44.292Z,69.21
2023-02-07T10:00:29.108Z,69.40
2023-02-07T10:02:58.664Z,70.06
2023-02-07T10:05:34.796Z,70.31
2023-02-07T10:08:02.011Z,70.15
2023-02-07T10:10:57.066Z,70.24
2023-02-07T10:13:40.649Z,70.32
2023-02-07T10:16:23.715Z,70.32
2023-02-07T10:19:24.702Z,70.37
2023-02-07T10:21:58.899Z,70.09
2023-02-07T10:24:25.539Z,70.26
2023-02-07T10:26:57.892Z,70.46
2023-02-07T10:29:28.043Z,70.21
2023-02-07T10:31:59.816Z,70.39
2023-02-07T10:34:37.661Z,70.80
2023-02-07T10:37:18.462Z,70.96
2023-02-07T10:39:52.855Z,70.99
2023-02-07T10:42:20.585Z,70.93
2023-02-07T10:44:47.877Z,70.61
2023-02-07T10:47:18.559Z,70.65
2023-02-07T10:49:48.631Z,70.17
2023-02-07T10:52:28.755Z,69.78
2023-02-07T10:54:58.927Z,69.38
2023-02-07T10:57:27.915Z,69.01
2023-02-07T11:00:01.738Z,68.77
2023-02-07T11:02:28.618Z,68.63
2023-02-07T11:04:57.231Z,68.72
2023-02-07T11:07:25.082Z,68.49
2023-02-07T11:09:52.653Z,68.52
2023-02-07T11:12:21.563Z,68.35
2023-02-07T11:15:05.809Z,68.26
2023-02-07T11:17:35.086Z,68.48
2023-02-07T11:20:05.708Z,68.46
2023-02-07T11:22:32.964Z,68.50
2023-02-07T11:25:05.509Z,68.56
2023-02-07T11:27:41.892Z,68.53
2023-02-07T11:30:16.411Z,68.76
2023-02-07T11:32:44.551Z,68.81
2023-02-07T11:35:20.883Z,68.88
2023-02-07T11:37:58.845Z,68.92
2023-02-07T11:40:36.243Z,68.67
2023-02-07T11:43:12.298Z,68.54
2023-02-07T11:45:42.992Z,68.31
2023-02-07T11:48:24.882Z,68.00
2023-02-07T11:50:55.624Z,67.69
2023-02-07T11:53:35.156Z,67.85
2023-02-07T11:56:02.294Z,67.99
2023-02-07T11:58:35.390Z,68.06
2023-02-07T12:01:05.453Z,68.39
2023-02-07T12:03:41.918Z,68.21
2023-02-07T12:06:15.708Z,68.04
2023-02-07T12:08:44.325Z,68.15
2023-02-07T12:11:17.568Z,68.27
2023-02-07T12:13:44.421Z,68.38
2023-02-07T12:16:14.721Z,68.34
2023-02-07T12:18:48.669Z,68.50
2023-02-07T12:21:30.876Z,68.59
2023-02-07T12:24:03.171Z,68.97
2023-02-07T12:26:37.655Z,69.35
2023-02-07T12:29:22.022Z,69.31
2023-02-07T12:32:12.485Z,69.15
2023-02-07T12:34:59.824Z,69.44
2023-02-07T12:37:37.648Z,69.51
2023-02-07T12:40:09.861Z,69.94
2023-02-07T12:42:49.749Z,70.23
2023-02-07T12:45:23.276Z,70.42
2023-02-07T12:47:50.105Z,71.00
2023-02-07T12:50:35.873Z,70.95
2023-02-07T12:53:21.786Z,71.38
2023-02-07T12:56:19.980Z,71.47
2023-02-07T12:59:09.675Z,71.12
2023-02-07T13:01:45.580Z,70.85
2023-02-07T13:04:25.188Z,70.80
2023-02-07T13:07:16.232Z,70.79
2023-02-07T13:10:07.287Z,70.79
2023-02-07T13:12:49.316Z,71.27
2023-02-07T13:15:21.539Z,71.35
2023-02-07T13:17:55.708Z,70.99
2023-02-07T13:20:22.376Z,71.10
2023-02-07T13:22:56.971Z,71.10
2023-02-07T13:25:29.511Z,71.09
2023-02-07T13:27:59.334Z,70.94
2023-02-07T13:30:29.775Z,70.47
2023-02-07T13:33:00.929Z,69.82
2023-02-07T13:35:33.104Z,69.14
2023-02-07T13:38:31.323Z,68.47
2023-02-07T13:41:04.854Z,68.40
2023-02-07T13:44:01.638Z,66.26
2023-02-07T13:46:43.507Z,64.81
2023-02-07T13:49:23.418Z,63.61
2023-02-07T13:52:02.077Z,63.04
2023-02-07T13:54:46.658Z,62.73
2023-02-07T13:57:36.806Z,62.29
2023-02-07T14:00:07.611Z,61.96
2023-02-07T14:02:45.100Z,62.16
2023-02-07T14:05:21.286Z,61.96
2023-02-07T14:07:57.935Z,61.31
2023-02-07T14:10:34.591Z,60.90
2023-02-07T14:13:02.622Z,60.92
2023-02-07T14:15:30.745Z,60.46
2023-02-07T14:18:04.121Z,60.55
2023-02-07T14:20:47.855Z,60.41
2023-02-07T14:23:17.030Z,60.26
2023-02-07T14:25:45.758Z,59.47
2023-02-07T14:28:30.502Z,58.21
2023-02-07T14:31:01.517Z,56.64
2023-02-07T14:33:34.021Z,56.50
2023-02-07T14:36:16.935Z,56.97
2023-02-07T14:38:59.974Z,58.10
2023-02-07T14:41:30.557Z,58.68
2023-02-07T14:44:09.172Z,59.82
2023-02-07T14:46:40.904Z,60.81
2023-02-07T14:49:13.861Z,61.80
2023-02-07T14:51:47.278Z,61.97
2023-02-07T14:54:22.168Z,63.34
2023-02-07T14:57:15.574Z,64.56
2023-02-07T14:59:47.263Z,65.45
2023-02-07T15:02:31.106Z,65.94
2023-02-07T15:04:58.783Z,66.14
2023-02-07T15:07:25.555Z,66.16
2023-02-07T15:09:52.451Z,66.05
2023-02-07T15:12:27.366Z,66.11
2023-02-07T15:14:57.245Z,66.57
2023-02-07T15:17:33.472Z,66.54
2023-02-07T15:20:06.819Z,66.59
2023-02-07T15:22:33.560Z,67.23
2023-02-07T15:25:01.181Z,66.88
2023-02-07T15:27:30.061Z,67.16
2023-02-07T15:30:01.187Z,67.62
2023-02-07T15:32:31.604Z,67.62
2023-02-07T15:35:07.306Z,68.13
2023-02-07T15:37:34.136Z,68.15
2023-02-07T15:40:01.078Z,68.44
2023-02-07T15:42:28.723Z,68.99
2023-02-07T15:44:58.445Z,69.34
2023-02-07T15:47:28.539Z,69.50
2023-02-07T15:50:00.836Z,69.50
2023-02-07T15:52:27.574Z,69.46
2023-02-07T15:54:55.782Z,69.51
2023-02-07T15:57:28.495Z,69.86
2023-02-07T15:59:56.599Z,69.98
2023-02-07T16:02:29.917Z,69.75
2023-02-07T16:04:57.750Z,69.83
2023-02-07T16:07:25.139Z,69.86
2023-02-07T16:09:54.070Z,70.35
2023-02-07T16:12:32.092Z,70.56
2023-02-07T16:15:00.794Z,70.69
2023-02-07T16:17:44.544Z,70.70
2023-02-07T16:20:14.803Z,70.90
2023-02-07T16:22:43.781Z,70.69
2023-02-07T16:25:21.729Z,70.78
2023-02-07T16:27:51.386Z,70.66
2023-02-07T16:30:23.728Z,70.67
2023-02-07T16:32:50.519Z,70.27
2023-02-07T16:35:24.132Z,70.15
2023-02-07T16:37:51.513Z,69.87
2023-02-07T16:40:22.398Z,69.69
2023-02-07T16:42:50.140Z,69.42
2023-02-07T16:45:27.154Z,69.46
2023-02-07T16:47:55.386Z,69.48
2023-02-07T16:50:25.386Z,69.41
2023-02-07T16:52:54.751Z,69.08
2023-02-07T16:55:21.585Z,69.33
2023-02-07T16:57:50.318Z,69.45
2023-02-07T17:00:21.275Z,69.57
2023-02-07T17:02:50.664Z,69.47
2023-02-07T17:05:19.035Z,69.48
2023-02-07T17:07:47.459Z,69.34
2023-02-07T17:10:18.435Z,69.19
2023-02-07T17:12:45.601Z,68.89
2023-02-07T17:15:12.608Z,68.55
2023-02-07T17:17:39.708Z,68.58
2023-02-07T17:20:23.072Z,68.58
2023-02-07T17:22:51.743Z,68.61
2023-02-07T17:25:20.152Z,68.61
2023-02-07T17:27:47.393Z,68.98
2023-02-07T17:30:19.763Z,69.01
2023-02-07T17:32:47.018Z,69.27
2023-02-07T17:35:14.406Z,69.14
2023-02-07T17:37:41.601Z,69.43
2023-02-07T17:40:20.520Z,69.35
2023-02-07T17:42:47.407Z,69.46
2023-02-07T17:45:14.967Z,69.60
2023-02-07T17:47:42.164Z,69.53
2023-02-07T17:50:16.982Z,69.34
2023-02-07T17:52:44.004Z,69.49
2023-02-07T17:55:10.992Z,69.18
2023-02-07T17:57:38.222Z,69.02
2023-02-07T18:00:06.039Z,68.97
2023-02-07T18:02:39.672Z,68.80
2023-02-07T18:05:07.039Z,68.89
2023-02-07T18:07:33.982Z,68.79
2023-02-07T18:10:00.769Z,69.09
2023-02-07T18:12:27.675Z,69.02
2023-02-07T18:14:56.556Z,69.27
2023-02-07T18:17:25.566Z,69.45
2023-02-07T18:19:52.404Z,69.52
2023-02-07T18:22:19.243Z,69.51
2023-02-07T18:24:46.358Z,69.74
2023-02-07T18:27:17.463Z,69.86
2023-02-07T18:29:46.115Z,69.74
2023-02-07T18:32:13.376Z,69.60
2023-02-07T18:34:41.097Z,69.61
2023-02-07T18:37:08.114Z,69.61
2023-02-07T18:39:34.961Z,69.41
2023-02-07T18:42:02.138Z,69.38
2023-02-07T18:44:28.949Z,69.39
2023-02-07T18:46:55.942Z,69.07
2023-02-07T18:49:23.575Z,69.20
2023-02-07T18:51:50.398Z,69.20
2023-02-07T18:54:17.445Z,69.43
2023-02-07T18:56:51.868Z,69.22
2023-02-07T18:59:20.387Z,69.35
2023-02-07T19:01:48.575Z,69.40
2023-02-07T19:04:16.238Z,69.13
2023-02-07T19:06:44.854Z,69.25
2023-02-07T19:09:12.546Z,69.01
2023-02-07T19:11:40.873Z,69.05
2023-02-07T19:14:18.420Z,68.95
2023-02-07T19:16:46.374Z,68.96
2023-02-07T19:19:14.403Z,68.80
2023-02-07T19:21:41.359Z,68.93
2023-02-07T19:24:11.400Z,69.24
2023-02-07T19:26:39.618Z,69.07
2023-02-07T19:29:06.422Z,69.43
2023-02-07T19:31:33.623Z,69.54
2023-02-07T19:34:00.432Z,69.68
2023-02-07T19:36:28.985Z,69.83
2023-02-07T19:38:56.081Z,69.69
2023-02-07T19:41:24.820Z,69.39
2023-02-07T19:43:51.950Z,69.33
2023-02-07T19:46:19.089Z,69.56
2023-02-07T19:48:47.332Z,69.55
2023-02-07T19:51:18.015Z,69.63
2023-02-07T19:53:46.652Z,69.64
2023-02-07T19:56:14.242Z,69.40
2023-02-07T19:58:44.255Z,69.51
2023-02-07T20:01:26.879Z,69.57
2023-02-07T20:03:55.555Z,70.11
2023-02-07T20:06:28.768Z,70.28
2023-02-07T20:08:57.364Z,70.35
2023-02-07T20:11:24.478Z,70.43
2023-02-07T20:13:54.498Z,70.27
2023-02-07T20:16:24.471Z,70.00
2023-02-07T20:18:52.788Z,70.03
2023-02-07T20:21:24.641Z,70.07
2023-02-07T20:23:54.275Z,69.99
2023-02-07T20:26:25.042Z,69.86
2023-02-07T20:28:52.260Z,69.82
2023-02-07T20:31:22.693Z,70.08
2023-02-07T20:33:50.399Z,70.28
2023-02-07T20:36:18.773Z,70.45
2023-02-07T20:38:46.626Z,70.49
2023-02-07T20:41:29.294Z,70.75
2023-02-07T20:43:59.287Z,70.96
2023-02-07T20:46:28.163Z,71.24
2023-02-07T20:48:58.346Z,71.23
2023-02-07T20:51:26.457Z,71.17
2023-02-07T20:53:56.847Z,70.98
2023-02-07T20:56:24.306Z,70.95
2023-02-07T20:58:51.571Z,70.77
2023-02-07T21:01:21.221Z,70.75
2023-02-07T21:03:50.701Z,70.64
2023-02-07T21:06:17.989Z,70.63
2023-02-07T21:08:45.423Z,70.79
2023-02-07T21:11:12.298Z,70.78
2023-02-07T21:13:39.832Z,70.69
2023-02-07T21:16:07.819Z,71.01
2023-02-07T21:18:35.443Z,71.36
2023-02-07T21:21:07.516Z,71.30
2023-02-07T21:23:35.609Z,71.55
2023-02-07T21:26:06.436Z,71.43
2023-02-07T21:28:33.822Z,71.51
2023-02-07T21:31:05.569Z,71.40
2023-02-07T21:33:32.414Z,71.19
2023-02-07T21:36:08.582Z,71.32
2023-02-07T21:38:36.570Z,71.45
2023-02-07T21:41:05.722Z,71.41
2023-02-07T21:43:32.647Z,71.44
2023-02-07T21:46:05.659Z,71.49
2023-02-07T21:48:35.756Z,71.54
2023-02-07T21:51:07.544Z,71.74
2023-02-07T21:53:34.681Z,71.81
2023-02-07T21:56:04.948Z,71.82
2023-02-07T21:58:32.139Z,72.04
2023-02-07T22:01:08.961Z,72.16
2023-02-07T22:03:37.435Z,72.30
2023-02-07T22:06:05.993Z,72.14
2023-02-07T22:08:34.012Z,71.91
2023-02-07T22:11:11.118Z,71.94
2023-02-07T22:13:40.910Z,71.60
2023-02-07T22:16:10.726Z,71.66
2023-02-07T22:18:38.194Z,71.78
2023-02-07T22:21:07.794Z,71.87
2023-02-07T22:23:34.612Z,71.92
2023-02-07T22:26:01.360Z,71.84
2023-02-07T22:28:28.670Z,71.95
2023-02-07T22:30:55.688Z,71.96
2023-02-07T22:33:22.472Z,72.20
2023-02-07T22:35:49.330Z,72.42
2023-02-07T22:38:16.343Z,72.14
2023-02-07T22:40:43.983Z,72.15
2023-02-07T22:43:14.798Z,72.06
2023-02-07T22:45:46.217Z,71.86
2023-02-07T22:48:15.441Z,71.73
2023-02-07T22:50:43.444Z,71.76
2023-02-07T22:53:12.163Z,71.94
2023-02-07T22:55:41.041Z,72.13
2023-02-07T22:58:08.593Z,72.12
2023-02-07T23:00:35.720Z,72.45
2023-02-07T23:03:02.511Z,72.59
2023-02-07T23:05:29.276Z,72.61
2023-02-07T23:07:56.223Z,72.84
2023-02-07T23:10:24.543Z,72.83
2023-02-07T23:12:51.434Z,72.46
2023-02-07T23:15:18.577Z,72.54
2023-02-07T23:17:45.365Z,72.32
2023-02-07T23:20:12.124Z,72.29
2023-02-07T23:22:39.107Z,72.22
2023-02-07T23:25:07.009Z,72.17
2023-02-07T23:27:33.919Z,72.29
2023-02-07T23:30:00.859Z,72.31
2023-02-07T23:32:27.772Z,72.51
2023-02-07T23:34:54.495Z,72.48
2023-02-07T23:37:22.504Z,72.72
2023-02-07T23:39:49.433Z,72.90
2023-02-07T23:42:16.249Z,72.92
2023-02-07T23:44:43.119Z,72.91
2023-02-07T23:47:09.966Z,72.83
2023-02-07T23:49:36.746Z,72.77
2023-02-07T23:52:03.588Z,72.87
2023-02-07T23:54:30.400Z,72.80
2023-02-07T23:56:57.120Z,72.67
2023-02-07T23:59:23.803Z,72.70
